Time;durP1;ratioP1;P1;durP2;ratioP2;P2;SDS_P1;SDS_P2;PMS_P1;PMS_P2;Temp;Humidity;BMP_temperature;BMP_pressure;BME280_temperature;BME280_humidity;BME280_pressure;Samples;Min_cycle;Max_cycle;Signal;HPM_P1;HPM_P2
2022/03/06 00:01:17;;;;;;;6.15;1.65;;;;;;;0.34;45.06;102673.81;4951345;28;20039;-69
2022/03/06 00:03:44;;;;;;;2.10;1.05;;;;;;;0.23;44.89;102674.38;4951662;28;20050;-74
2022/03/06 00:06:10;;;;;;;2.65;1.08;;;;;;;0.42;44.42;102672.34;4935377;28;20612;-74
2022/03/06 00:08:36;;;;;;;4.75;1.27;;;;;;;0.47;44.40;102666.50;4949120;28;20048;-72
2022/03/06 00:11:02;;;;;;;1.95;1.10;;;;;;;0.40;44.76;102666.28;4963751;28;20030;-73
2022/03/06 00:13:27;;;;;;;5.82;1.45;;;;;;;0.39;44.60;102667.09;4950325;28;20101;-72
2022/03/06 00:15:53;;;;;;;6.03;1.23;;;;;;;0.41;44.62;102678.31;4949079;28;20042;-74
2022/03/06 00:18:19;;;;;;;2.13;0.98;;;;;;;0.41;44.29;102668.91;4947580;28;20031;-74
2022/03/06 00:20:44;;;;;;;6.78;1.42;;;;;;;0.39;44.40;102674.81;4950751;28;20062;-74
2022/03/06 00:23:10;;;;;;;2.63;1.25;;;;;;;0.47;44.34;102673.38;4949848;28;20043;-75
2022/03/06 00:25:36;;;;;;;2.65;0.90;;;;;;;0.41;44.22;102673.16;4947623;28;20039;-75
2022/03/06 00:28:02;;;;;;;2.75;1.02;;;;;;;0.64;44.02;102677.34;4952753;28;20041;-75
2022/03/06 00:30:28;;;;;;;4.50;1.20;;;;;;;0.72;43.68;102668.97;4965313;28;20115;-75
2022/03/06 00:32:54;;;;;;;4.82;1.75;;;;;;;0.68;43.52;102679.19;4948776;28;20034;-75
2022/03/06 00:35:20;;;;;;;1.80;0.98;;;;;;;0.65;43.44;102676.50;4953094;28;20596;-75
2022/03/06 00:37:46;;;;;;;5.05;0.85;;;;;;;0.65;43.72;102679.06;4948421;28;20105;-76
2022/03/06 00:40:11;;;;;;;3.28;1.08;;;;;;;0.68;43.38;102671.47;4950287;28;20937;-76
2022/03/06 00:42:37;;;;;;;4.55;1.65;;;;;;;0.62;43.80;102683.28;4947542;28;20067;-75
2022/03/06 00:45:03;;;;;;;5.35;1.58;;;;;;;0.63;44.00;102675.56;4952698;28;20125;-74
2022/03/06 00:47:29;;;;;;;4.10;1.38;;;;;;;0.68;43.79;102674.03;4947914;28;20161;-72
2022/03/06 00:49:55;;;;;;;3.85;0.82;;;;;;;0.58;44.27;102682.28;4949651;28;20039;-72
2022/03/06 00:52:20;;;;;;;2.83;1.02;;;;;;;0.46;44.70;102687.06;4949048;28;20043;-74
2022/03/06 00:54:46;;;;;;;3.10;1.27;;;;;;;0.43;44.69;102676.66;4966326;28;20038;-73
2022/03/06 00:57:12;;;;;;;2.75;0.88;;;;;;;0.46;44.83;102676.78;4949767;28;20419;-71
2022/03/06 00:59:37;;;;;;;3.35;1.52;;;;;;;0.47;45.20;102679.38;4950446;28;20033;-71
2022/03/06 01:02:04;;;;;;;3.53;1.70;;;;;;;0.42;44.95;102674.94;4949410;28;20054;-67
2022/03/06 01:04:30;;;;;;;5.03;1.30;;;;;;;0.27;45.48;102681.31;4948587;28;20142;-68
2022/03/06 01:06:56;;;;;;;5.43;2.55;;;;;;;0.32;45.52;102689.19;4952007;28;20480;-76
2022/03/06 01:09:21;;;;;;;2.55;1.15;;;;;;;0.15;46.29;102683.53;4964221;28;20035;-75
2022/03/06 01:11:47;;;;;;;4.68;1.73;;;;;;;0.16;46.18;102686.97;4952417;28;20038;-74
2022/03/06 01:14:13;;;;;;;2.53;1.48;;;;;;;0.16;46.23;102682.69;4963515;28;20042;-76
2022/03/06 01:16:38;;;;;;;3.25;1.10;;;;;;;0.24;45.93;102681.22;4951085;28;20089;-74
2022/03/06 01:19:04;;;;;;;3.28;1.00;;;;;;;0.21;46.33;102682.81;4963720;28;20400;-73
2022/03/06 01:21:29;;;;;;;2.15;1.10;;;;;;;0.27;46.05;102685.59;4952022;28;20046;-75
2022/03/06 01:23:55;;;;;;;4.53;1.20;;;;;;;0.20;46.07;102688.81;4946189;28;20134;-74
2022/03/06 01:26:20;;;;;;;4.78;1.25;;;;;;;0.28;45.92;102693.38;4967212;28;20484;-75
2022/03/06 01:28:46;;;;;;;2.60;1.55;;;;;;;0.17;46.22;102696.44;4951419;28;20047;-74
2022/03/06 01:31:11;;;;;;;4.80;1.60;;;;;;;0.03;46.80;102690.81;4966344;28;20506;-75
2022/03/06 01:33:37;;;;;;;6.32;1.55;;;;;;;0.14;46.33;102684.31;4965030;28;20046;-77
2022/03/06 01:36:03;;;;;;;3.70;1.25;;;;;;;0.13;46.26;102700.59;4948849;28;20043;-76
2022/03/06 01:38:29;;;;;;;2.30;1.40;;;;;;;0.12;46.07;102691.13;4964715;28;20521;-76
2022/03/06 01:40:55;;;;;;;4.45;1.13;;;;;;;0.19;46.17;102687.94;4965603;28;20615;-75
2022/03/06 01:43:20;;;;;;;4.40;1.15;;;;;;;0.23;46.25;102694.03;4948476;28;20113;-75
2022/03/06 01:45:46;;;;;;;2.50;1.00;;;;;;;0.30;45.88;102689.97;4937301;28;20031;-77
2022/03/06 01:48:11;;;;;;;3.97;1.67;;;;;;;0.20;46.31;102694.81;4952395;28;20118;-75
2022/03/06 01:50:37;;;;;;;3.35;1.30;;;;;;;0.23;45.99;102694.94;4964852;28;20489;-76
2022/03/06 01:53:07;;;;;;;2.00;0.88;;;;;;;0.23;46.10;102700.06;4962418;28;20297;-75
2022/03/06 01:55:33;;;;;;;4.18;1.20;;;;;;;0.32;45.55;102703.75;4950135;28;20035;-75
2022/03/06 01:58:04;;;;;;;2.38;0.85;;;;;;;0.14;45.80;102694.59;4930276;28;20057;-69
2022/03/06 02:00:34;;;;;;;3.95;1.15;;;;;;;0.06;46.23;102706.38;4949946;28;20038;-70
2022/03/06 02:03:00;;;;;;;4.30;1.27;;;;;;;0.21;45.64;102706.88;4963129;28;20051;-71
2022/03/06 02:05:26;;;;;;;5.20;1.52;;;;;;;0.14;45.86;102707.47;4949948;28;20050;-70
2022/03/06 02:07:52;;;;;;;2.88;1.08;;;;;;;0.28;45.63;102708.81;4930930;28;20121;-69
2022/03/06 02:10:18;;;;;;;7.95;1.90;;;;;;;0.26;45.66;102702.75;4950010;28;20097;-69
2022/03/06 02:12:44;;;;;;;2.38;1.10;;;;;;;0.24;45.30;102711.22;4960905;28;20492;-70
2022/03/06 02:15:11;;;;;;;1.80;0.70;;;;;;;0.42;44.79;102708.38;4962350;28;20190;-70
2022/03/06 02:17:38;;;;;;;5.65;0.90;;;;;;;0.42;44.66;102705.81;4947537;28;20046;-69
2022/03/06 02:20:10;;;;;;;1.98;0.70;;;;;;;0.32;44.72;102706.31;4949118;28;20695;-69
2022/03/06 02:22:40;;;;;;;2.78;1.13;;;;;;;0.18;45.33;102706.75;4947126;28;20401;-70
2022/03/06 02:25:12;;;;;;;3.25;1.10;;;;;;;0.24;44.70;102703.53;4949207;28;20225;-70
2022/03/06 02:27:37;;;;;;;1.80;0.80;;;;;;;0.16;44.67;102698.09;4953244;28;20459;-70
2022/03/06 02:30:08;;;;;;;4.03;1.08;;;;;;;0.14;44.70;102704.03;4951426;28;20093;-70
2022/03/06 02:32:35;;;;;;;3.63;0.82;;;;;;;0.24;44.64;102698.38;4951449;28;20054;-70
2022/03/06 02:35:00;;;;;;;3.30;0.88;;;;;;;0.25;44.17;102695.81;4952358;28;20157;-70
2022/03/06 02:37:26;;;;;;;2.78;0.95;;;;;;;0.07;44.67;102697.81;4952593;28;20548;-70
2022/03/06 02:39:51;;;;;;;3.72;0.57;;;;;;;0.02;44.75;102699.38;4952803;28;20248;-70
2022/03/06 02:42:28;;;;;;;1.70;0.73;;;;;;;-0.03;44.73;102685.50;4949606;28;20065;-70
2022/03/06 02:44:54;;;;;;;2.45;0.60;;;;;;;-0.00;44.44;102690.72;4964786;28;20039;-70
2022/03/06 02:47:20;;;;;;;3.63;0.82;;;;;;;-0.13;44.56;102682.59;4949611;28;20530;-70
2022/03/06 02:49:46;;;;;;;3.22;1.30;;;;;;;-0.24;44.96;102685.63;4952893;28;20525;-70
2022/03/06 02:52:12;;;;;;;2.78;0.70;;;;;;;-0.47;45.64;102692.56;4952815;28;20326;-70
2022/03/06 02:54:38;;;;;;;2.08;0.55;;;;;;;-0.52;45.63;102689.81;4950228;28;20034;-72
2022/03/06 02:57:06;;;;;;;4.05;0.75;;;;;;;-0.70;45.99;102684.91;4950782;28;20534;-73
2022/03/06 02:59:31;;;;;;;2.22;0.55;;;;;;;-0.64;45.46;102677.44;4950604;28;20034;-71
2022/03/06 03:01:57;;;;;;;1.75;0.77;;;;;;;-0.73;45.94;102679.66;4952898;28;20913;-71
2022/03/06 03:04:22;;;;;;;2.58;0.70;;;;;;;-0.82;46.06;102684.44;4965132;28;20027;-69
2022/03/06 03:06:52;;;;;;;6.75;1.13;;;;;;;-0.92;46.76;102690.09;4951649;28;20438;-70
2022/03/06 03:09:20;;;;;;;3.45;0.70;;;;;;;-1.04;46.57;102683.69;4951883;28;20504;-70
2022/03/06 03:11:50;;;;;;;1.95;0.50;;;;;;;-1.04;46.08;102687.91;4952197;28;20307;-70
2022/03/06 03:14:17;;;;;;;2.05;0.52;;;;;;;-1.07;46.29;102680.09;4949853;28;20542;-69
2022/03/06 03:16:42;;;;;;;1.60;0.90;;;;;;;-1.11;46.09;102686.78;4958563;28;20039;-68
2022/03/06 03:19:08;;;;;;;1.45;0.50;;;;;;;-1.19;46.39;102685.63;4948762;28;20147;-69
2022/03/06 03:21:33;;;;;;;1.33;0.45;;;;;;;-1.13;45.94;102688.41;4950355;28;20031;-68
2022/03/06 03:23:59;;;;;;;1.77;0.47;;;;;;;-1.36;46.32;102689.25;4955242;28;20109;-68
2022/03/06 03:26:25;;;;;;;2.03;0.80;;;;;;;-1.49;46.37;102698.13;4969003;28;20138;-68
2022/03/06 03:28:51;;;;;;;3.70;0.40;;;;;;;-1.48;46.34;102693.09;4953405;28;20538;-71
2022/03/06 03:31:17;;;;;;;3.88;1.10;;;;;;;-1.54;46.47;102692.84;4942066;28;20039;-72
2022/03/06 03:33:42;;;;;;;0.82;0.30;;;;;;;-1.53;46.20;102694.59;4952193;28;20082;-72
2022/03/06 03:36:08;;;;;;;1.55;0.50;;;;;;;-1.63;46.40;102692.47;4957812;28;20077;-72
2022/03/06 03:38:34;;;;;;;3.97;1.17;;;;;;;-1.68;46.57;102692.28;4953799;28;20035;-71
2022/03/06 03:41:01;;;;;;;1.77;0.55;;;;;;;-1.64;46.39;102693.31;4950402;28;20039;-72
2022/03/06 03:43:26;;;;;;;2.92;0.45;;;;;;;-1.64;46.00;102698.44;4950889;28;20241;-73
2022/03/06 03:45:52;;;;;;;3.03;0.57;;;;;;;-1.67;45.96;102703.41;4955746;28;20158;-72
2022/03/06 03:48:18;;;;;;;3.88;0.50;;;;;;;-1.76;46.39;102698.78;4951068;28;20054;-71
2022/03/06 03:50:44;;;;;;;1.63;0.70;;;;;;;-1.74;45.86;102701.44;4952054;28;20035;-72
2022/03/06 03:53:09;;;;;;;1.83;0.52;;;;;;;-1.70;45.79;102705.88;4947668;28;20051;-71
2022/03/06 03:55:35;;;;;;;1.42;0.50;;;;;;;-1.84;45.78;102706.19;4950904;28;20039;-69
2022/03/06 03:58:01;;;;;;;3.00;0.50;;;;;;;-1.89;46.27;102711.91;4965450;28;20109;-69
2022/03/06 04:00:27;;;;;;;1.30;0.43;;;;;;;-1.89;46.19;102711.91;4967035;28;20039;-71
2022/03/06 04:02:52;;;;;;;4.25;0.47;;;;;;;-1.86;45.85;102712.94;4947875;28;20043;-71
2022/03/06 04:05:18;;;;;;;2.28;0.65;;;;;;;-1.92;46.04;102712.66;4951427;28;20035;-71
2022/03/06 04:07:43;;;;;;;3.25;0.65;;;;;;;-1.85;45.96;102708.66;4949181;28;20062;-71
2022/03/06 04:10:09;;;;;;;2.45;1.85;;;;;;;-1.78;45.37;102720.06;4965746;28;20074;-71
2022/03/06 04:12:34;;;;;;;1.05;0.38;;;;;;;-1.72;45.20;102715.19;4949013;28;20954;-71
2022/03/06 04:15:00;;;;;;;2.55;0.90;;;;;;;-1.83;45.13;102709.63;4950080;28;20035;-71
2022/03/06 04:17:25;;;;;;;2.88;0.63;;;;;;;-1.74;44.74;102711.69;4949970;28;20046;-71
2022/03/06 04:19:50;;;;;;;1.85;0.50;;;;;;;-1.96;44.99;102715.91;4965639;28;20026;-73
2022/03/06 04:22:16;;;;;;;2.50;0.68;;;;;;;-2.09;45.10;102723.91;4950852;28;20055;-73
2022/03/06 04:24:41;;;;;;;3.00;0.63;;;;;;;-2.14;45.17;102721.16;4958367;28;20589;-72
2022/03/06 04:27:07;;;;;;;1.83;0.40;;;;;;;-2.12;44.82;102721.22;4949811;28;20623;-73
2022/03/06 04:29:32;;;;;;;2.55;0.50;;;;;;;-1.90;43.85;102731.56;4957320;28;20592;-73
2022/03/06 04:31:58;;;;;;;1.10;0.50;;;;;;;-1.93;43.93;102718.63;4952837;28;20035;-72
2022/03/06 04:34:23;;;;;;;5.35;1.60;;;;;;;-2.07;43.89;102724.84;4950916;28;20509;-73
2022/03/06 04:36:49;;;;;;;1.80;0.77;;;;;;;-2.16;44.27;102724.47;4949922;28;20074;-73
2022/03/06 04:39:14;;;;;;;2.47;0.70;;;;;;;-2.24;44.22;102730.13;4949227;28;23079;-72
2022/03/06 04:41:40;;;;;;;4.97;0.50;;;;;;;-2.21;44.06;102725.13;4965472;28;20043;-73
2022/03/06 04:44:06;;;;;;;1.33;0.55;;;;;;;-2.38;44.42;102721.00;4951230;28;20091;-71
2022/03/06 04:46:31;;;;;;;1.00;0.30;;;;;;;-2.25;43.92;102728.38;4939951;28;20035;-71
2022/03/06 04:48:57;;;;;;;0.98;0.45;;;;;;;-2.32;44.58;102730.63;4946636;28;20038;-72
2022/03/06 04:51:22;;;;;;;3.28;0.43;;;;;;;-2.25;44.04;102728.38;4965356;28;20599;-71
2022/03/06 04:53:48;;;;;;;1.60;0.55;;;;;;;-2.39;44.16;102734.59;4949623;28;20061;-70
2022/03/06 04:56:14;;;;;;;2.95;0.73;;;;;;;-2.23;43.59;102741.25;4948985;28;20067;-71
2022/03/06 04:58:40;;;;;;;2.25;0.52;;;;;;;-2.29;43.53;102729.06;4950239;28;20051;-71
2022/03/06 05:01:06;;;;;;;1.50;0.88;;;;;;;-2.30;43.19;102731.56;4948504;28;20066;-70
2022/03/06 05:03:33;;;;;;;2.47;0.40;;;;;;;-2.35;42.74;102728.81;4950161;28;20035;-71
2022/03/06 05:05:58;;;;;;;1.95;0.93;;;;;;;-2.25;42.56;102741.16;4948580;28;20166;-70
2022/03/06 05:08:26;;;;;;;4.18;0.40;;;;;;;-2.19;42.18;102743.13;4949302;28;20762;-69
2022/03/06 05:10:53;;;;;;;2.13;1.75;;;;;;;-2.25;42.38;102742.88;4962487;28;20038;-71
2022/03/06 05:13:19;;;;;;;1.33;0.50;;;;;;;-2.19;42.16;102744.84;4948331;28;20109;-70
2022/03/06 05:15:44;;;;;;;2.00;0.68;;;;;;;-2.19;42.14;102742.28;4963267;28;20637;-69
2022/03/06 05:18:11;;;;;;;1.30;0.70;;;;;;;-2.27;42.12;102735.13;4946573;28;20090;-70
2022/03/06 05:20:37;;;;;;;2.85;0.55;;;;;;;-2.24;41.83;102739.50;4947035;28;20035;-75
2022/03/06 05:23:03;;;;;;;2.25;0.73;;;;;;;-2.29;41.89;102749.56;4961431;28;20047;-72
2022/03/06 05:25:28;;;;;;;1.05;0.50;;;;;;;-2.40;41.83;102745.66;4948483;28;20043;-70
2022/03/06 05:27:54;;;;;;;1.35;0.45;;;;;;;-2.35;42.27;102745.84;4960353;28;20640;-66
2022/03/06 05:30:19;;;;;;;2.15;0.50;;;;;;;-2.39;41.93;102749.97;4950933;28;20051;-72
2022/03/06 05:32:45;;;;;;;1.02;0.55;;;;;;;-2.38;42.20;102750.81;4944695;28;20038;-75
2022/03/06 05:35:10;;;;;;;3.75;0.47;;;;;;;-2.45;42.31;102749.69;4963900;28;20471;-69
2022/03/06 05:37:37;;;;;;;1.58;0.60;;;;;;;-2.40;42.34;102760.13;4947290;28;20097;-70
2022/03/06 05:40:04;;;;;;;2.90;0.70;;;;;;;-2.37;42.22;102753.47;4950402;28;20033;-74
2022/03/06 05:42:29;;;;;;;1.00;0.47;;;;;;;-2.39;42.43;102755.09;4946231;28;20042;-72
2022/03/06 05:44:55;;;;;;;3.35;0.38;;;;;;;-2.25;42.10;102756.53;4949116;28;20031;-72
2022/03/06 05:47:20;;;;;;;0.68;0.32;;;;;;;-2.30;42.46;102757.16;4949821;28;20067;-74
2022/03/06 05:49:45;;;;;;;1.88;0.70;;;;;;;-2.14;42.36;102763.81;4951794;28;20030;-72
2022/03/06 05:52:11;;;;;;;1.45;0.38;;;;;;;-2.03;42.08;102758.34;4947597;28;20089;-72
2022/03/06 05:54:36;;;;;;;2.65;0.73;;;;;;;-1.89;41.64;102770.88;4962171;28;20034;-72
2022/03/06 05:57:02;;;;;;;2.30;0.52;;;;;;;-1.82;41.61;102771.22;4946962;28;20112;-72
2022/03/06 05:59:28;;;;;;;4.53;1.00;;;;;;;-1.72;41.26;102771.59;4946843;28;20046;-72
2022/03/06 06:01:53;;;;;;;1.10;0.80;;;;;;;-1.47;41.16;102779.44;4945560;28;20042;-72
2022/03/06 06:04:19;;;;;;;1.23;0.70;;;;;;;-1.41;40.87;102773.72;4948979;28;20421;-71
2022/03/06 06:06:45;;;;;;;2.05;0.82;;;;;;;-1.36;40.72;102779.03;4947667;28;20213;-71
2022/03/06 06:09:10;;;;;;;2.47;0.82;;;;;;;-1.36;40.72;102781.59;4944037;28;20099;-72
2022/03/06 06:11:36;;;;;;;2.78;1.23;;;;;;;-1.32;40.49;102786.91;4948285;28;20126;-73
2022/03/06 06:14:02;;;;;;;3.97;0.73;;;;;;;-1.34;40.58;102785.09;4945684;28;20062;-69
2022/03/06 06:16:28;;;;;;;1.50;0.70;;;;;;;-1.43;40.82;102786.47;4931230;28;20041;-74
2022/03/06 06:18:54;;;;;;;1.15;0.50;;;;;;;-1.44;40.90;102789.84;4946598;28;20031;-71
2022/03/06 06:21:19;;;;;;;1.30;0.50;;;;;;;-1.42;41.13;102788.22;4946671;28;20035;-69
2022/03/06 06:23:45;;;;;;;1.00;0.57;;;;;;;-1.33;41.22;102794.53;4945687;28;20043;-68
2022/03/06 06:26:11;;;;;;;4.00;1.10;;;;;;;-1.31;40.97;102801.47;4943534;28;20722;-69
2022/03/06 06:28:37;;;;;;;2.65;0.70;;;;;;;-1.21;40.92;102792.47;4945922;28;20089;-69
2022/03/06 06:31:03;;;;;;;1.75;0.47;;;;;;;-1.09;40.90;102792.94;4946054;28;20039;-69
2022/03/06 06:33:28;;;;;;;3.33;0.68;;;;;;;-0.94;41.10;102797.84;4953624;28;20404;-72
2022/03/06 06:35:54;;;;;;;3.03;0.98;;;;;;;-0.86;40.91;102800.69;4956179;28;20030;-68
2022/03/06 06:38:21;;;;;;;4.07;1.10;;;;;;;-0.82;40.69;102797.41;4952127;28;20054;-68
2022/03/06 06:40:51;;;;;;;2.63;0.52;;;;;;;-0.73;40.31;102800.34;4962995;28;20527;-69
2022/03/06 06:43:17;;;;;;;6.70;0.90;;;;;;;-0.83;40.41;102800.81;4947644;28;20067;-68
2022/03/06 06:45:44;;;;;;;2.85;0.77;;;;;;;-0.64;40.26;102795.56;4962311;28;20516;-68
2022/03/06 06:48:10;;;;;;;2.78;0.75;;;;;;;-0.60;39.93;102793.97;4944685;28;20047;-68
2022/03/06 06:50:35;;;;;;;2.95;0.55;;;;;;;-0.62;39.79;102788.78;4947938;28;20035;-67
2022/03/06 06:53:01;;;;;;;2.00;0.63;;;;;;;-0.60;39.62;102781.13;4948593;28;20061;-72
2022/03/06 06:55:27;;;;;;;3.15;0.73;;;;;;;-0.63;39.48;102792.19;4931956;28;20154;-73
2022/03/06 06:57:52;;;;;;;1.10;0.52;;;;;;;-0.47;38.99;102790.19;4945508;28;20049;-73
2022/03/06 07:00:18;;;;;;;1.77;0.68;;;;;;;-0.39;39.07;102791.34;4946896;28;20043;-73
2022/03/06 07:02:44;;;;;;;2.35;0.80;;;;;;;0.02;38.43;102784.22;4931875;28;20046;-73
2022/03/06 07:05:10;;;;;;;0.82;0.65;;;;;;;1.97;37.14;102776.41;4949424;28;20043;-72
2022/03/06 07:07:36;;;;;;;1.13;0.38;;;;;;;2.50;34.38;102776.91;4945455;28;20042;-72
2022/03/06 07:10:04;;;;;;;4.38;0.55;;;;;;;2.42;35.07;102786.16;4933073;28;20144;-73
2022/03/06 07:12:29;;;;;;;1.20;0.65;;;;;;;2.86;35.15;102794.09;4963638;28;20049;-72
2022/03/06 07:14:55;;;;;;;1.50;0.47;;;;;;;5.41;32.15;102790.88;4947442;28;20043;-72
2022/03/06 07:17:20;;;;;;;1.55;0.50;;;;;;;7.57;28.33;102789.16;4950366;28;20042;-72
2022/03/06 07:19:46;;;;;;;2.40;0.77;;;;;;;9.71;23.84;102781.94;4936391;28;20039;-71
2022/03/06 07:22:11;;;;;;;2.45;0.47;;;;;;;11.26;22.29;102787.56;4966355;28;20050;-70
2022/03/06 07:24:37;;;;;;;1.85;0.60;;;;;;;12.19;19.53;102788.00;4948575;28;20540;-72
2022/03/06 07:27:02;;;;;;;1.70;0.70;;;;;;;12.22;19.73;102793.22;4951907;28;20397;-73
2022/03/06 07:29:28;;;;;;;3.03;0.50;;;;;;;13.39;17.97;102793.66;4966342;28;20031;-72
2022/03/06 07:31:54;;;;;;;3.00;0.98;;;;;;;14.51;16.97;102791.03;4965625;28;20122;-72
2022/03/06 07:34:19;;;;;;;0.82;0.47;;;;;;;15.37;16.24;102796.59;4950414;28;20077;-73
2022/03/06 07:36:45;;;;;;;1.77;0.40;;;;;;;15.97;15.82;102804.38;4952247;28;20460;-71
2022/03/06 07:39:10;;;;;;;2.58;0.60;;;;;;;15.49;15.28;102799.75;4949503;28;20054;-72
2022/03/06 07:41:36;;;;;;;0.93;0.45;;;;;;;15.20;15.78;102805.84;4950004;28;20130;-70
2022/03/06 07:44:01;;;;;;;1.13;0.63;;;;;;;15.42;15.85;102804.34;4949718;28;20090;-71
2022/03/06 07:46:27;;;;;;;1.25;0.40;;;;;;;15.24;16.24;102810.13;4948055;28;20066;-69
2022/03/06 07:48:52;;;;;;;4.15;0.98;;;;;;;14.93;16.72;102803.94;4947998;28;20057;-71
2022/03/06 07:51:19;;;;;;;1.98;0.40;;;;;;;14.94;15.76;102799.53;4965388;28;20038;-71
2022/03/06 07:53:45;;;;;;;1.38;0.40;;;;;;;14.87;15.92;102803.25;4947876;28;20043;-72
2022/03/06 07:56:10;;;;;;;3.05;0.50;;;;;;;15.14;16.32;102799.84;4947575;28;20035;-75
2022/03/06 07:58:36;;;;;;;1.67;0.50;;;;;;;14.70;15.89;102796.69;4950155;28;20520;-70
2022/03/06 08:01:02;;;;;;;4.55;0.70;;;;;;;14.26;16.66;102797.81;4948005;28;20497;-72
2022/03/06 08:03:27;;;;;;;1.35;0.30;;;;;;;14.09;17.18;102800.84;4951281;28;20103;-71
2022/03/06 08:05:53;;;;;;;2.35;0.70;;;;;;;14.33;16.48;102799.38;4947926;28;20027;-71
2022/03/06 08:08:18;;;;;;;3.10;0.45;;;;;;;13.63;17.51;102800.19;4948109;28;20580;-71
2022/03/06 08:10:43;;;;;;;3.53;0.40;;;;;;;13.61;17.63;102807.22;4950164;28;20137;-72
2022/03/06 08:13:09;;;;;;;1.88;0.68;;;;;;;13.43;17.31;102803.22;4948071;28;20047;-70
2022/03/06 08:15:34;;;;;;;2.05;0.50;;;;;;;12.85;18.12;102812.25;4950229;28;20114;-71
2022/03/06 08:18:00;;;;;;;2.28;0.70;;;;;;;12.64;17.65;102813.47;4948412;28;20047;-70
2022/03/06 08:20:25;;;;;;;1.80;0.32;;;;;;;13.18;18.54;102815.09;4948218;28;20031;-71
2022/03/06 08:22:51;;;;;;;2.50;0.40;;;;;;;14.13;16.98;102810.41;4947306;28;20053;-71
2022/03/06 08:25:19;;;;;;;2.08;0.40;;;;;;;13.75;17.38;102817.41;4950075;28;20658;-72
2022/03/06 08:27:44;;;;;;;1.15;0.30;;;;;;;13.85;17.18;102808.44;4946494;28;20034;-70
2022/03/06 08:30:10;;;;;;;3.22;0.40;;;;;;;13.52;16.99;102810.88;4948603;28;20359;-71
2022/03/06 08:32:37;;;;;;;2.55;0.50;;;;;;;13.23;17.62;102821.16;4947547;28;20130;-71
2022/03/06 08:35:03;;;;;;;1.58;0.32;;;;;;;12.80;17.98;102816.72;4963797;28;20085;-71
2022/03/06 08:37:29;;;;;;;3.65;1.33;;;;;;;13.56;17.56;102819.53;4949017;28;20133;-71
2022/03/06 08:39:55;;;;;;;2.30;0.43;;;;;;;12.55;18.10;102827.59;4963520;28;20138;-70
2022/03/06 08:42:20;;;;;;;3.25;0.70;;;;;;;12.41;18.78;102833.09;4948557;28;20055;-70
2022/03/06 08:44:46;;;;;;;3.92;0.88;;;;;;;12.58;18.10;102831.94;4948317;28;20030;-71
2022/03/06 08:47:11;;;;;;;0.90;0.65;;;;;;;12.05;18.06;102830.16;4930586;28;20031;-71
2022/03/06 08:49:37;;;;;;;3.35;0.70;;;;;;;11.11;18.88;102830.50;4948490;28;20524;-70
2022/03/06 08:52:03;;;;;;;2.30;0.93;;;;;;;9.79;20.77;102839.38;4949297;28;20110;-71
2022/03/06 08:54:28;;;;;;;1.70;0.70;;;;;;;9.18;21.58;102845.69;4963652;28;22634;-71
2022/03/06 08:56:54;;;;;;;2.22;1.05;;;;;;;8.36;22.81;102839.69;4947300;28;20999;-70
2022/03/06 08:59:20;;;;;;;2.05;0.63;;;;;;;8.62;22.25;102841.41;4961333;28;20429;-69
2022/03/06 09:01:46;;;;;;;1.77;0.70;;;;;;;8.77;22.58;102841.44;4962149;28;20069;-70
2022/03/06 09:04:13;;;;;;;2.72;0.77;;;;;;;8.64;22.73;102860.53;4966494;28;20389;-70
2022/03/06 09:06:40;;;;;;;1.27;0.40;;;;;;;8.89;22.75;102856.19;4966527;28;20369;-70
2022/03/06 09:09:06;;;;;;;0.55;0.30;;;;;;;7.90;23.70;102847.41;4949729;28;20039;-70
2022/03/06 09:11:32;;;;;;;3.20;1.05;;;;;;;7.84;23.84;102855.19;4968735;28;20518;-71
2022/03/06 09:13:59;;;;;;;3.55;1.45;;;;;;;7.60;23.95;102862.06;4967069;28;20030;-71
2022/03/06 09:16:25;;;;;;;1.23;0.52;;;;;;;7.50;23.99;102861.09;4967508;28;20895;-70
2022/03/06 09:18:50;;;;;;;1.45;0.40;;;;;;;6.96;24.47;102862.53;4967610;28;20050;-72
2022/03/06 09:21:16;;;;;;;1.13;0.30;;;;;;;6.82;24.89;102865.03;4936213;28;20097;-72
2022/03/06 09:23:41;;;;;;;1.15;0.55;;;;;;;6.80;24.77;102864.16;4964167;28;20046;-72
2022/03/06 09:26:07;;;;;;;4.05;0.45;;;;;;;7.05;24.89;102857.38;4944707;28;20329;-73
2022/03/06 09:28:33;;;;;;;1.35;0.57;;;;;;;7.46;23.94;102850.66;4961930;28;20069;-73
2022/03/06 09:30:58;;;;;;;2.00;0.80;;;;;;;7.64;24.35;102855.97;4959300;28;20069;-72
2022/03/06 09:33:23;;;;;;;1.25;0.90;;;;;;;8.50;23.47;102858.78;4964791;28;20145;-72
2022/03/06 09:35:49;;;;;;;3.17;0.60;;;;;;;9.13;23.50;102855.28;4958793;28;20034;-70
2022/03/06 09:38:15;;;;;;;4.78;0.65;;;;;;;9.18;23.01;102858.72;4943981;28;20123;-72
2022/03/06 09:40:43;;;;;;;4.50;0.75;;;;;;;9.23;21.95;102861.31;4959848;28;20588;-72
2022/03/06 09:43:14;;;;;;;2.28;0.63;;;;;;;8.89;22.69;102862.25;4962848;28;20050;-70
2022/03/06 09:45:40;;;;;;;3.55;0.73;;;;;;;8.41;22.37;102864.00;4960914;28;20694;-71
2022/03/06 09:48:06;;;;;;;1.60;0.45;;;;;;;7.51;23.39;102867.16;4962899;28;20082;-72
2022/03/06 09:50:32;;;;;;;1.67;0.40;;;;;;;8.19;24.37;102864.84;4958616;28;20130;-71
2022/03/06 09:52:58;;;;;;;0.90;0.30;;;;;;;8.18;24.17;102870.88;4962075;28;20074;-71
2022/03/06 09:55:23;;;;;;;4.70;0.60;;;;;;;8.48;24.23;102878.75;4960539;28;20153;-71
2022/03/06 09:57:53;;;;;;;1.00;0.55;;;;;;;8.15;23.62;102869.16;4942299;28;20038;-71
2022/03/06 10:00:19;;;;;;;4.25;0.77;;;;;;;8.11;23.80;102868.28;4959842;28;20089;-70
2022/03/06 10:02:59;;;;;;;1.52;0.63;;;;;;;7.20;24.29;102861.81;4942840;28;20468;-70
2022/03/06 10:05:27;;;;;;;2.35;0.38;;;;;;;7.14;24.60;102861.78;4963410;28;20038;-71
2022/03/06 10:07:52;;;;;;;2.15;0.40;;;;;;;7.58;25.04;102861.19;4959262;28;20041;-70
2022/03/06 10:10:35;;;;;;;1.38;0.50;;;;;;;7.07;25.20;102867.81;4961469;28;20041;-71
2022/03/06 10:13:26;;;;;;;1.67;0.68;;;;;;;7.28;25.46;102860.09;4964784;28;20051;-71
2022/03/06 10:16:12;;;;;;;1.98;0.57;;;;;;;7.18;26.14;102858.34;4950034;28;20081;-72
2022/03/06 10:18:49;;;;;;;2.22;0.55;;;;;;;7.36;25.31;102861.91;4958475;28;20042;-72
2022/03/06 10:21:19;;;;;;;2.83;0.60;;;;;;;7.50;25.85;102860.22;4963467;28;20073;-70
2022/03/06 10:23:46;;;;;;;3.72;0.63;;;;;;;7.32;25.02;102861.88;4959627;28;20047;-72
2022/03/06 10:26:15;;;;;;;2.10;0.68;;;;;;;7.44;25.33;102849.78;4961500;28;20042;-70
2022/03/06 10:28:44;;;;;;;2.20;0.75;;;;;;;7.22;25.27;102854.91;4959366;28;20559;-69
2022/03/06 10:31:10;;;;;;;1.20;0.52;;;;;;;7.16;25.31;102859.19;4929193;28;20167;-72
2022/03/06 10:33:36;;;;;;;2.60;0.77;;;;;;;7.18;25.86;102858.34;4962335;28;20034;-72
2022/03/06 10:36:02;;;;;;;4.28;0.50;;;;;;;8.19;24.06;102862.22;4963827;28;20936;-72
2022/03/06 10:38:33;;;;;;;3.38;0.60;;;;;;;8.19;24.60;102862.22;4962071;28;20220;-71
2022/03/06 10:41:13;;;;;;;0.93;0.40;;;;;;;7.64;25.10;102858.56;4961999;28;20352;-72
2022/03/06 10:43:40;;;;;;;4.28;0.70;;;;;;;7.91;24.02;102863.03;4960849;28;20047;-70
2022/03/06 10:46:13;;;;;;;2.55;0.77;;;;;;;7.44;25.41;102855.00;4961242;28;20046;-72
2022/03/06 10:48:41;;;;;;;2.33;0.70;;;;;;;6.95;26.48;102858.16;4959115;28;20084;-73
2022/03/06 10:51:13;;;;;;;2.13;0.60;;;;;;;6.90;26.41;102862.47;4945436;28;20038;-72
2022/03/06 10:53:39;;;;;;;0.98;0.50;;;;;;;6.55;27.45;102864.78;4947519;28;20097;-71
2022/03/06 10:56:14;;;;;;;2.30;0.68;;;;;;;6.47;27.09;102870.78;4965179;28;20050;-72
2022/03/06 10:58:42;;;;;;;1.58;0.80;;;;;;;6.09;27.59;102876.44;4937282;28;20042;-72
2022/03/06 11:01:09;;;;;;;1.60;0.55;;;;;;;5.81;28.11;102869.19;4947805;28;20084;-72
2022/03/06 11:03:36;;;;;;;3.25;0.98;;;;;;;6.10;28.33;102872.09;4965044;28;20579;-72
2022/03/06 11:06:03;;;;;;;1.58;0.57;;;;;;;6.38;27.69;102875.91;4950180;28;20049;-71
2022/03/06 11:08:30;;;;;;;2.20;0.93;;;;;;;6.42;28.63;102875.09;4964839;28;20046;-72
2022/03/06 11:10:56;;;;;;;4.65;1.02;;;;;;;7.55;26.50;102868.94;4963538;28;20146;-72
2022/03/06 11:13:22;;;;;;;2.83;1.10;;;;;;;7.97;25.79;102871.72;4950022;28;20525;-72
2022/03/06 11:15:49;;;;;;;5.55;0.82;;;;;;;7.83;25.96;102863.88;4964355;28;20125;-70
2022/03/06 11:18:16;;;;;;;2.55;0.90;;;;;;;7.93;26.11;102852.59;4965286;28;20049;-69
2022/03/06 11:20:44;;;;;;;5.38;1.05;;;;;;;7.85;26.30;102859.53;4964505;28;20050;-72
2022/03/06 11:23:20;;;;;;;1.98;0.90;;;;;;;7.15;27.23;102858.28;4966032;28;20049;-72
2022/03/06 11:26:10;;;;;;;2.05;0.60;;;;;;;7.60;26.31;102851.66;4961280;28;20585;-73